Time;durP1;ratioP1;P1;durP2;ratioP2;P2;SDS_P1;SDS_P2;PMS_P1;PMS_P2;Temp;Humidity;BMP_temperature;BMP_pressure;BME280_temperature;BME280_humidity;BME280_pressure;Samples;Min_cycle;Max_cycle;Signal;HPM_P1;HPM_P2
2023/02/01 00:00:36;;;;;;;11.68;5.50;;;;;;;;;;12823398;19;20390;-69
2023/02/01 00:05:13;;;;;;;8.77;4.72;;;;;;;;;;12824513;19;20481;-69
2023/02/01 00:09:31;;;;;;;10.60;4.78;;;;;;;;;;12827010;19;20088;-69
2023/02/01 00:13:49;;;;;;;9.40;4.78;;;;;;;;;;12824482;19;20384;-68
2023/02/01 00:18:07;;;;;;;12.48;5.18;;;;;;;;;;12829393;19;20007;-69
2023/02/01 00:22:24;;;;;;;11.45;4.80;;;;;;;;;;12823664;19;20370;-69
2023/02/01 00:26:45;;;;;;;11.15;5.00;;;;;;;;;;12824346;19;20127;-69
2023/02/01 00:31:04;;;;;;;9.40;4.55;;;;;;;;;;12821819;19;20305;-68
2023/02/01 00:35:22;;;;;;;11.02;4.93;;;;;;;;;;12823638;19;20521;-69
2023/02/01 00:39:39;;;;;;;10.40;4.00;;;;;;;;;;12826481;19;20082;-69
2023/02/01 00:43:57;;;;;;;9.88;4.45;;;;;;;;;;12826075;19;20388;-69
2023/02/01 00:48:15;;;;;;;10.10;4.60;;;;;;;;;;12823311;19;20480;-68
2023/02/01 00:52:33;;;;;;;7.90;3.93;;;;;;;;;;12824133;19;20367;-69
2023/02/01 00:56:50;;;;;;;11.50;4.78;;;;;;;;;;12823818;19;20438;-69
2023/02/01 01:01:11;;;;;;;10.53;5.93;;;;;;;;;;12822575;19;20367;-69
2023/02/01 01:05:28;;;;;;;18.48;7.03;;;;;;;;;;12827125;19;20023;-69
2023/02/01 01:09:46;;;;;;;15.77;7.50;;;;;;;;;;12822809;19;20444;-69
2023/02/01 01:14:07;;;;;;;11.85;6.03;;;;;;;;;;12823337;19;20014;-69
2023/02/01 01:18:24;;;;;;;7.63;3.85;;;;;;;;;;12823597;19;20816;-69
2023/02/01 01:22:42;;;;;;;6.47;3.50;;;;;;;;;;12822393;19;20501;-70
2023/02/01 01:27:00;;;;;;;5.60;2.80;;;;;;;;;;12820693;19;20500;-69
2023/02/01 01:31:20;;;;;;;3.00;1.73;;;;;;;;;;12821011;19;20299;-70
2023/02/01 01:35:37;;;;;;;2.83;1.70;;;;;;;;;;12822127;19;20309;-69
2023/02/01 01:39:57;;;;;;;2.30;1.30;;;;;;;;;;12822003;19;20378;-69
2023/02/01 01:45:00;;;;;;;4.85;1.35;;;;;;;;;;12820211;19;20479;-69
2023/02/01 01:49:23;;;;;;;2.80;1.30;;;;;;;;;;12822281;19;20437;-69
2023/02/01 01:53:55;;;;;;;1.92;1.10;;;;;;;;;;12817829;19;20370;-69
2023/02/01 01:58:21;;;;;;;3.92;1.17;;;;;;;;;;12818981;19;20087;-70
2023/02/01 02:02:41;;;;;;;1.50;0.60;;;;;;;;;;12820682;19;20440;-69
2023/02/01 02:07:23;;;;;;;4.03;1.45;;;;;;;;;;12820544;19;20484;-69
2023/02/01 02:11:40;;;;;;;3.15;0.73;;;;;;;;;;12818181;19;20022;-69
2023/02/01 02:16:17;;;;;;;2.30;0.90;;;;;;;;;;12818227;19;20635;-69
2023/02/01 02:21:31;;;;;;;4.78;1.40;;;;;;;;;;12819964;19;20628;-69
2023/02/01 02:26:12;;;;;;;3.03;1.23;;;;;;;;;;12812824;19;20089;-69
2023/02/01 02:31:13;;;;;;;4.00;1.10;;;;;;;;;;12819972;19;20566;-69
2023/02/01 02:35:55;;;;;;;3.38;1.25;;;;;;;;;;12820082;19;20317;-69
2023/02/01 02:40:46;;;;;;;3.85;1.02;;;;;;;;;;12818490;19;20366;-70
2023/02/01 02:54:46;;;;;;;5.68;1.48;;;;;;;;;;12815912;19;20484;-69
2023/02/01 03:04:08;;;;;;;3.03;1.13;;;;;;;;;;12818606;19;20394;-69
2023/02/01 03:08:33;;;;;;;2.97;1.30;;;;;;;;;;12826636;19;20078;-69
2023/02/01 03:12:55;;;;;;;8.77;1.52;;;;;;;;;;12828936;19;20074;-70
2023/02/01 03:17:25;;;;;;;3.00;1.17;;;;;;;;;;12827934;19;20441;-70
2023/02/01 03:21:53;;;;;;;4.55;1.42;;;;;;;;;;12828000;19;20496;-69
2023/02/01 03:26:18;;;;;;;2.95;1.33;;;;;;;;;;12828025;19;20482;-70
2023/02/01 03:30:42;;;;;;;2.97;1.20;;;;;;;;;;12829523;19;20357;-70
2023/02/01 03:34:59;;;;;;;2.63;1.02;;;;;;;;;;12826167;19;20387;-70
2023/02/01 03:39:46;;;;;;;3.23;1.00;;;;;;;;;;12825268;19;20493;-69
2023/02/01 03:45:02;;;;;;;4.68;1.25;;;;;;;;;;12827160;19;20500;-69
2023/02/01 03:49:34;;;;;;;4.75;1.88;;;;;;;;;;12823599;19;20472;-69
2023/02/01 03:53:53;;;;;;;5.90;1.30;;;;;;;;;;12825466;19;20081;-69
2023/02/01 03:58:15;;;;;;;;;;;;;;;;;;12824912;19;20309;-69
2023/02/01 04:02:33;;;;;;;3.10;0.90;;;;;;;;;;12827147;19;19978;-71
2023/02/01 04:06:51;;;;;;;3.25;1.17;;;;;;;;;;12827226;19;20377;-69
2023/02/01 04:11:09;;;;;;;3.45;1.20;;;;;;;;;;12824701;19;20341;-69
2023/02/01 04:15:26;;;;;;;3.37;1.27;;;;;;;;;;12825466;19;20472;-69
2023/02/01 04:19:44;;;;;;;4.03;1.13;;;;;;;;;;12823267;19;20481;-69
2023/02/01 04:24:02;;;;;;;5.30;1.23;;;;;;;;;;12821568;19;20810;-70
2023/02/01 04:28:20;;;;;;;3.47;1.30;;;;;;;;;;12824925;19;20484;-70
2023/02/01 04:32:38;;;;;;;4.67;1.47;;;;;;;;;;12827589;19;20015;-69
2023/02/01 04:36:55;;;;;;;5.63;1.05;;;;;;;;;;12826781;19;20406;-70
2023/02/01 04:41:13;;;;;;;2.72;1.25;;;;;;;;;;12822149;19;20060;-70
2023/02/01 04:45:30;;;;;;;4.43;1.48;;;;;;;;;;12824167;19;20325;-69
2023/02/01 04:49:48;;;;;;;4.07;1.23;;;;;;;;;;12821034;19;20517;-69
2023/02/01 04:54:06;;;;;;;3.03;0.95;;;;;;;;;;12822102;19;20125;-69
2023/02/01 04:58:24;;;;;;;;;;;;;;;;;;12824057;19;20464;-69
2023/02/01 05:02:42;;;;;;;5.97;1.70;;;;;;;;;;12821933;19;19990;-69
2023/02/01 05:06:59;;;;;;;6.83;2.03;;;;;;;;;;12823557;19;20425;-68
2023/02/01 05:15:53;;;;;;;4.63;1.67;;;;;;;;;;12821215;19;20499;-69
2023/02/01 05:20:11;;;;;;;12.73;2.97;;;;;;;;;;12819939;19;20496;-70
2023/02/01 05:24:28;;;;;;;9.63;3.33;;;;;;;;;;12823258;19;20528;-69
2023/02/01 05:28:46;;;;;;;5.50;1.80;;;;;;;;;;12817664;19;20320;-69
2023/02/01 05:33:04;;;;;;;6.25;1.60;;;;;;;;;;12819076;19;20493;-69
2023/02/01 05:37:22;;;;;;;4.47;1.27;;;;;;;;;;12823673;19;20529;-69
2023/02/01 05:41:40;;;;;;;6.78;1.63;;;;;;;;;;12822604;19;20395;-70
2023/02/01 05:45:58;;;;;;;6.75;2.65;;;;;;;;;;12818653;19;20309;-69
2023/02/01 05:50:16;;;;;;;6.85;2.45;;;;;;;;;;12818648;19;20086;-68
2023/02/01 05:54:34;;;;;;;8.10;2.90;;;;;;;;;;12820083;19;20439;-69
2023/02/01 05:58:52;;;;;;;4.30;1.77;;;;;;;;;;12819671;19;20433;-70
2023/02/01 06:03:09;;;;;;;10.23;2.67;;;;;;;;;;12816375;19;20371;-70
2023/02/01 06:07:27;;;;;;;10.03;4.20;;;;;;;;;;12820459;19;20468;-70
2023/02/01 06:11:46;;;;;;;10.27;4.78;;;;;;;;;;12818814;19;20504;-70
2023/02/01 06:16:05;;;;;;;8.03;4.10;;;;;;;;;;12819056;19;20309;-69
2023/02/01 06:20:23;;;;;;;10.00;4.43;;;;;;;;;;12818751;19;20358;-69
2023/02/01 06:24:41;;;;;;;10.60;3.38;;;;;;;;;;12818554;19;20022;-71
2023/02/01 06:28:58;;;;;;;6.63;3.87;;;;;;;;;;12817869;19;20501;-70
2023/02/01 06:33:17;;;;;;;11.23;4.00;;;;;;;;;;12815873;19;20520;-69
2023/02/01 06:37:36;;;;;;;9.50;3.87;;;;;;;;;;12819268;19;20015;-69
2023/02/01 06:41:54;;;;;;;10.18;4.80;;;;;;;;;;12829058;19;20476;-69
2023/02/01 06:46:13;;;;;;;10.93;5.35;;;;;;;;;;12828629;19;20377;-69
2023/02/01 06:50:30;;;;;;;;;;;;;;;;;;12829765;19;20520;-69
2023/02/01 06:54:48;;;;;;;12.88;5.75;;;;;;;;;;12830359;19;19923;-69
2023/02/01 06:59:07;;;;;;;12.38;5.15;;;;;;;;;;12829854;19;20655;-69
2023/02/01 07:03:24;;;;;;;11.00;5.50;;;;;;;;;;12828274;19;20380;-68
2023/02/01 07:07:42;;;;;;;12.13;4.80;;;;;;;;;;12827070;19;20481;-71
2023/02/01 07:12:00;;;;;;;11.05;4.75;;;;;;;;;;12827694;19;20011;-69
2023/02/01 07:16:19;;;;;;;11.63;5.13;;;;;;;;;;12830340;19;20468;-69
2023/02/01 07:20:37;;;;;;;9.35;4.53;;;;;;;;;;12829750;19;20010;-69
2023/02/01 07:24:54;;;;;;;14.70;6.97;;;;;;;;;;12825648;19;20485;-69
2023/02/01 07:29:12;;;;;;;18.60;7.73;;;;;;;;;;12827005;19;20493;-71
2023/02/01 07:33:29;;;;;;;15.77;6.50;;;;;;;;;;12824133;19;20580;-69
2023/02/01 07:37:47;;;;;;;13.73;5.63;;;;;;;;;;12825706;19;20486;-68
2023/02/01 07:42:06;;;;;;;12.38;5.70;;;;;;;;;;12822533;19;20517;-68
2023/02/01 07:46:24;;;;;;;11.80;5.80;;;;;;;;;;12822240;19;20492;-70
2023/02/01 07:50:41;;;;;;;12.13;4.68;;;;;;;;;;12824769;19;20485;-69
2023/02/01 07:54:59;;;;;;;15.40;5.75;;;;;;;;;;12824957;19;20306;-70
2023/02/01 07:59:16;;;;;;;12.83;5.93;;;;;;;;;;12827393;19;20360;-69
2023/02/01 08:03:34;;;;;;;13.05;4.93;;;;;;;;;;12827178;19;20022;-69
2023/02/01 08:07:52;;;;;;;25.03;10.13;;;;;;;;;;12824414;19;20513;-68
2023/02/01 08:12:09;;;;;;;17.98;6.65;;;;;;;;;;12828448;19;20895;-70
2023/02/01 08:16:27;;;;;;;14.57;6.40;;;;;;;;;;12824891;19;20403;-69
2023/02/01 08:20:47;;;;;;;27.27;9.37;;;;;;;;;;12824603;19;20488;-70
2023/02/01 08:25:06;;;;;;;27.15;9.10;;;;;;;;;;12823136;19;20540;-69
2023/02/01 08:29:24;;;;;;;;;;;;;;;;;;12823479;19;20305;-70
2023/02/01 08:33:43;;;;;;;30.95;15.77;;;;;;;;;;12825180;19;20320;-69
2023/02/01 08:38:00;;;;;;;17.23;10.15;;;;;;;;;;12820599;19;20431;-70
2023/02/01 08:46:54;;;;;;;24.02;10.35;;;;;;;;;;12822808;19;20500;-69
2023/02/01 08:51:18;;;;;;;24.73;10.05;;;;;;;;;;12822342;19;20562;-70
2023/02/01 08:55:36;;;;;;;17.23;9.38;;;;;;;;;;12823322;19;20379;-69
2023/02/01 08:59:53;;;;;;;27.10;12.15;;;;;;;;;;12822256;19;20086;-69
2023/02/01 09:04:11;;;;;;;35.53;13.60;;;;;;;;;;12821958;19;20368;-69
2023/02/01 09:08:29;;;;;;;47.70;16.90;;;;;;;;;;12823486;19;20052;-69
2023/02/01 09:12:46;;;;;;;35.00;12.18;;;;;;;;;;12820077;19;20425;-70
2023/02/01 09:17:05;;;;;;;22.10;8.55;;;;;;;;;;12812858;19;20690;-68
2023/02/01 09:21:23;;;;;;;37.40;15.30;;;;;;;;;;12814758;19;20624;-69
2023/02/01 09:25:40;;;;;;;35.22;16.50;;;;;;;;;;12813669;19;20462;-69
2023/02/01 09:29:58;;;;;;;29.43;11.43;;;;;;;;;;12818833;19;20460;-71
2023/02/01 09:34:16;;;;;;;33.45;15.93;;;;;;;;;;12820747;19;20551;-71
2023/02/01 09:38:34;;;;;;;33.50;16.03;;;;;;;;;;12821859;19;20489;-70
2023/02/01 09:43:05;;;;;;;25.60;12.25;;;;;;;;;;12819744;19;20433;-70
2023/02/01 09:47:25;;;;;;;30.95;13.20;;;;;;;;;;12815902;19;20007;-71
2023/02/01 09:51:48;;;;;;;24.33;9.80;;;;;;;;;;12816521;19;20351;-70
2023/02/01 09:56:17;;;;;;;28.92;13.02;;;;;;;;;;12816848;19;20536;-70
2023/02/01 10:00:38;;;;;;;29.30;14.32;;;;;;;;;;12820303;19;20451;-71
2023/02/01 10:04:59;;;;;;;57.80;26.95;;;;;;;;;;12820143;19;20540;-70
2023/02/01 10:09:23;;;;;;;32.13;12.75;;;;;;;;;;12817746;19;20060;-70
2023/02/01 10:13:59;;;;;;;37.72;15.05;;;;;;;;;;12816456;19;20824;-70
2023/02/01 10:19:04;;;;;;;38.60;13.60;;;;;;;;;;12814440;19;20548;-69
2023/02/01 10:24:05;;;;;;;30.08;10.93;;;;;;;;;;12818087;19;20504;-70
2023/02/01 10:28:36;;;;;;;23.63;11.18;;;;;;;;;;12819255;19;20519;-69
2023/02/01 10:33:23;;;;;;;22.30;9.63;;;;;;;;;;12816181;19;20082;-70
2023/02/01 10:37:43;;;;;;;19.88;9.07;;;;;;;;;;12815445;19;20094;-70
2023/02/01 10:42:00;;;;;;;23.60;8.55;;;;;;;;;;12815203;19;20620;-69
2023/02/01 10:46:18;;;;;;;27.90;9.67;;;;;;;;;;12814810;19;20512;-70
2023/02/01 10:50:44;;;;;;;20.87;8.60;;;;;;;;;;12814453;19;20085;-70
2023/02/01 10:55:33;;;;;;;30.48;11.70;;;;;;;;;;12816247;19;20437;-69
2023/02/01 10:59:50;;;;;;;33.67;12.95;;;;;;;;;;12818440;19;20443;-70
2023/02/01 11:04:15;;;;;;;28.42;9.98;;;;;;;;;;12817867;19;20366;-71
2023/02/01 11:08:32;;;;;;;24.48;10.25;;;;;;;;;;12816246;19;20460;-70
2023/02/01 11:12:53;;;;;;;25.27;9.07;;;;;;;;;;12815197;19;20041;-70
2023/02/01 11:17:14;;;;;;;20.23;9.20;;;;;;;;;;12816087;19;20086;-69
2023/02/01 11:21:34;;;;;;;20.33;7.30;;;;;;;;;;12815928;19;20378;-70
2023/02/01 11:25:55;;;;;;;24.60;8.82;;;;;;;;;;12815997;19;20508;-71
2023/02/01 11:30:18;;;;;;;23.38;8.95;;;;;;;;;;12829111;19;20531;-70
2023/02/01 11:34:51;;;;;;;22.05;8.18;;;;;;;;;;12828410;19;20470;-70
2023/02/01 11:39:29;;;;;;;16.90;7.18;;;;;;;;;;12825295;19;20476;-70
2023/02/01 11:43:58;;;;;;;23.25;9.75;;;;;;;;;;12825562;19;20489;-71
2023/02/01 11:48:17;;;;;;;23.55;8.98;;;;;;;;;;12825102;19;20366;-70
2023/02/01 11:53:20;;;;;;;17.75;7.63;;;;;;;;;;12828752;19;20297;-71
2023/02/01 11:58:26;;;;;;;16.88;7.60;;;;;;;;;;12829142;19;20413;-70
2023/02/01 12:03:29;;;;;;;16.50;6.97;;;;;;;;;;12826746;19;20488;-71
2023/02/01 12:08:28;;;;;;;27.50;11.48;;;;;;;;;;12826229;19;20492;-70
2023/02/01 12:13:22;;;;;;;34.25;16.42;;;;;;;;;;12824043;19;20509;-70
2023/02/01 12:17:54;;;;;;;19.85;9.32;;;;;;;;;;12822463;19;20566;-70
2023/02/01 12:22:35;;;;;;;29.13;10.05;;;;;;;;;;12825691;19;20489;-70
2023/02/01 12:27:20;;;;;;;23.90;9.35;;;;;;;;;;12826602;19;20456;-73
2023/02/01 12:32:02;;;;;;;38.97;16.27;;;;;;;;;;12822770;19;20508;-71
2023/02/01 12:36:41;;;;;;;27.80;11.82;;;;;;;;;;12821571;19;20456;-70
2023/02/01 12:41:19;;;;;;;31.40;14.40;;;;;;;;;;12823427;19;20358;-70
2023/02/01 12:45:59;;;;;;;27.17;12.45;;;;;;;;;;12821812;19;20521;-71
2023/02/01 12:50:31;;;;;;;24.02;9.82;;;;;;;;;;12822327;19;20433;-70
2023/02/01 12:55:22;;;;;;;16.98;9.38;;;;;;;;;;12822933;19;20036;-71
2023/02/01 13:00:13;;;;;;;40.58;14.60;;;;;;;;;;12822210;19;20485;-71
2023/02/01 13:04:58;;;;;;;38.17;16.23;;;;;;;;;;12822309;19;20476;-70
2023/02/01 13:09:23;;;;;;;36.38;14.43;;;;;;;;;;12820162;19;20945;-70
2023/02/01 13:14:05;;;;;;;16.75;7.57;;;;;;;;;;12821751;19;20547;-70
2023/02/01 13:18:32;;;;;;;36.17;16.85;;;;;;;;;;12823017;19;20388;-72
2023/02/01 13:23:13;;;;;;;22.10;12.68;;;;;;;;;;12822224;19;20374;-71
2023/02/01 13:27:33;;;;;;;32.15;14.93;;;;;;;;;;12823304;19;20390;-70
2023/02/01 13:32:17;;;;;;;21.52;8.80;;;;;;;;;;12821448;19;20342;-70
2023/02/01 13:37:14;;;;;;;18.92;8.40;;;;;;;;;;12821208;19;20387;-70
2023/02/01 13:41:52;;;;;;;16.92;7.30;;;;;;;;;;12818912;19;20503;-70
2023/02/01 13:46:14;;;;;;;9.15;4.32;;;;;;;;;;12817403;19;20440;-71
2023/02/01 13:50:40;;;;;;;13.23;6.13;;;;;;;;;;12817622;19;20007;-71
2023/02/01 13:55:24;;;;;;;23.13;8.00;;;;;;;;;;12820144;19;20320;-71
2023/02/01 13:59:45;;;;;;;26.13;11.25;;;;;;;;;;12817105;19;20754;-71
2023/02/01 14:04:25;;;;;;;15.40;6.93;;;;;;;;;;12817471;19;20063;-72
2023/02/01 14:08:47;;;;;;;16.30;8.25;;;;;;;;;;12819031;19;20804;-70
2023/02/01 14:13:36;;;;;;;23.95;9.27;;;;;;;;;;12816743;19;20421;-70
2023/02/01 14:17:55;;;;;;;44.85;19.88;;;;;;;;;;12817810;19;20078;-72
2023/02/01 14:22:24;;;;;;;31.38;12.23;;;;;;;;;;12816510;19;20631;-70
2023/02/01 14:26:44;;;;;;;17.75;9.38;;;;;;;;;;12820356;19;20445;-70
2023/02/01 14:31:18;;;;;;;27.65;12.90;;;;;;;;;;12819077;19;20476;-69
2023/02/01 14:35:36;;;;;;;23.67;12.07;;;;;;;;;;12819207;19;20488;-69
2023/02/01 14:40:13;;;;;;;30.38;15.45;;;;;;;;;;12817741;19;20375;-70
2023/02/01 14:44:34;;;;;;;30.15;13.77;;;;;;;;;;12817794;19;20028;-70
2023/02/01 14:48:57;;;;;;;24.38;13.00;;;;;;;;;;12816172;19;20383;-71
2023/02/01 14:53:25;;;;;;;22.05;11.95;;;;;;;;;;12817648;19;20022;-71
2023/02/01 14:57:46;;;;;;;20.08;10.52;;;;;;;;;;12817117;19;20425;-70
2023/02/01 15:02:23;;;;;;;20.67;10.27;;;;;;;;;;12824648;19;20461;-70
2023/02/01 15:06:48;;;;;;;17.10;9.45;;;;;;;;;;12828049;19;20308;-71
2023/02/01 15:11:14;;;;;;;16.88;9.65;;;;;;;;;;12826618;19;20457;-71
2023/02/01 15:15:35;;;;;;;15.88;9.10;;;;;;;;;;12828631;19;20493;-70
2023/02/01 15:19:59;;;;;;;21.20;9.55;;;;;;;;;;12828951;19;20370;-71
2023/02/01 15:24:21;;;;;;;16.50;9.02;;;;;;;;;;12826239;19;20484;-70
2023/02/01 15:28:39;;;;;;;18.10;9.73;;;;;;;;;;12827449;19;20350;-70
2023/02/01 15:33:19;;;;;;;16.13;10.15;;;;;;;;;;12829270;19;20471;-69
2023/02/01 15:37:36;;;;;;;19.75;9.25;;;;;;;;;;12829935;19;20796;-70
2023/02/01 15:42:09;;;;;;;16.38;8.48;;;;;;;;;;12824493;19;20014;-70
2023/02/01 15:46:45;;;;;;;14.93;7.90;;;;;;;;;;12822353;19;20472;-71
2023/02/01 15:51:03;;;;;;;15.00;7.32;;;;;;;;;;12821139;19;20351;-70
2023/02/01 15:55:25;;;;;;;11.73;5.65;;;;;;;;;;12826055;19;20429;-70
2023/02/01 15:59:44;;;;;;;9.60;5.40;;;;;;;;;;12824038;19;20359;-70
2023/02/01 16:04:16;;;;;;;16.83;7.32;;;;;;;;;;12825759;19;20354;-69
2023/02/01 16:08:36;;;;;;;7.07;4.45;;;;;;;;;;12824349;19;20347;-68
2023/02/01 16:12:58;;;;;;;10.27;4.65;;;;;;;;;;12822944;19;20489;-69
2023/02/01 16:17:15;;;;;;;6.07;3.75;;;;;;;;;;12825211;19;20014;-70
2023/02/01 16:21:33;;;;;;;6.50;3.20;;;;;;;;;;12825975;19;20133;-69
2023/02/01 16:25:51;;;;;;;13.40;7.15;;;;;;;;;;12824242;19;20352;-69
2023/02/01 16:30:09;;;;;;;45.47;20.47;;;;;;;;;;12823681;19;20473;-68
2023/02/01 16:34:27;;;;;;;;;;;;;;;;;;12822895;19;20374;-69
2023/02/01 16:38:49;;;;;;;12.00;7.37;;;;;;;;;;12822485;19;20325;-69
2023/02/01 16:43:22;;;;;;;15.45;7.53;;;;;;;;;;12821843;19;20033;-70
2023/02/01 16:47:51;;;;;;;11.15;4.45;;;;;;;;;;12823811;19;20010;-69
2023/02/01 16:52:19;;;;;;;6.10;3.70;;;;;;;;;;12819131;19;20348;-68
2023/02/01 16:56:41;;;;;;;12.80;7.03;;;;;;;;;;12820635;19;20033;-69
2023/02/01 17:00:59;;;;;;;9.70;4.32;;;;;;;;;;12821500;19;20291;-70
2023/02/01 17:05:17;;;;;;;7.15;3.80;;;;;;;;;;12819153;19;20789;-69
2023/02/01 17:09:36;;;;;;;7.37;3.73;;;;;;;;;;12821588;19;20074;-69
2023/02/01 17:13:55;;;;;;;9.75;3.95;;;;;;;;;;12821449;19;20888;-69
2023/02/01 17:18:16;;;;;;;10.77;4.30;;;;;;;;;;12817897;19;20135;-69
2023/02/01 17:22:34;;;;;;;13.02;5.55;;;;;;;;;;12822691;19;20468;-71
2023/02/01 17:26:51;;;;;;;10.20;5.93;;;;;;;;;;12821843;19;20368;-69
2023/02/01 17:31:14;;;;;;;14.85;7.97;;;;;;;;;;12815894;19;20481;-70
2023/02/01 17:35:33;;;;;;;11.98;6.68;;;;;;;;;;12819460;19;20465;-69
2023/02/01 17:39:54;;;;;;;12.98;5.63;;;;;;;;;;12818766;19;20509;-69
2023/02/01 17:44:12;;;;;;;6.55;3.92;;;;;;;;;;12816575;19;20082;-69
2023/02/01 17:48:29;;;;;;;7.78;4.03;;;;;;;;;;12815585;19;20341;-69
2023/02/01 17:52:47;;;;;;;28.08;15.10;;;;;;;;;;12818858;19;20915;-70
2023/02/01 17:57:11;;;;;;;32.50;14.73;;;;;;;;;;12816504;19;20379;-69
2023/02/01 18:01:29;;;;;;;29.45;13.30;;;;;;;;;;12818033;19;20294;-71
2023/02/01 18:05:49;;;;;;;43.60;20.00;;;;;;;;;;12819418;19;20412;-70
2023/02/01 18:10:10;;;;;;;31.50;14.55;;;;;;;;;;12814610;19;20425;-69
2023/02/01 18:14:28;;;;;;;32.42;13.02;;;;;;;;;;12815715;19;20450;-69
2023/02/01 18:18:46;;;;;;;48.53;21.10;;;;;;;;;;12820201;19;20455;-69
2023/02/01 18:23:03;;;;;;;54.92;25.48;;;;;;;;;;12818009;19;20433;-71
2023/02/01 18:27:22;;;;;;;28.67;13.80;;;;;;;;;;12816369;19;20102;-69
2023/02/01 18:31:49;;;;;;;28.15;13.45;;;;;;;;;;12819329;19;20160;-72
2023/02/01 18:36:11;;;;;;;28.45;9.65;;;;;;;;;;12823037;19;20471;-70
2023/02/01 18:40:59;;;;;;;34.83;13.95;;;;;;;;;;12830619;19;20584;-69
2023/02/01 18:45:35;;;;;;;10.75;5.03;;;;;;;;;;12827292;19;20014;-68
2023/02/01 18:49:55;;;;;;;14.23;5.75;;;;;;;;;;12827902;19;20014;-71
2023/02/01 18:54:13;;;;;;;;;;;;;;;;;;12829843;19;20357;-69
2023/02/01 18:58:31;;;;;;;19.67;9.20;;;;;;;;;;12830770;19;19966;-70
2023/02/01 19:02:48;;;;;;;18.58;9.25;;;;;;;;;;12830717;19;20539;-69
2023/02/01 19:07:06;;;;;;;23.63;11.05;;;;;;;;;;12830683;19;20533;-69
2023/02/01 19:11:24;;;;;;;38.03;21.75;;;;;;;;;;12829552;19;20085;-69
2023/02/01 19:15:42;;;;;;;50.83;28.00;;;;;;;;;;12829853;19;20321;-70
2023/02/01 19:20:00;;;;;;;30.95;14.85;;;;;;;;;;12828963;19;20471;-69
2023/02/01 19:24:18;;;;;;;21.98;12.30;;;;;;;;;;12826438;19;20018;-70
2023/02/01 19:28:36;;;;;;;27.07;13.03;;;;;;;;;;12829400;19;20788;-69
2023/02/01 19:32:53;;;;;;;32.27;16.23;;;;;;;;;;12828702;19;20528;-70
2023/02/01 19:37:10;;;;;;;20.73;9.60;;;;;;;;;;12827225;19;20440;-71
2023/02/01 19:41:28;;;;;;;24.43;12.13;;;;;;;;;;12826963;19;20414;-69
2023/02/01 19:45:46;;;;;;;25.60;11.60;;;;;;;;;;12821906;19;20363;-70
2023/02/01 19:50:06;;;;;;;21.07;12.53;;;;;;;;;;12826855;19;20362;-69
2023/02/01 19:54:23;;;;;;;25.05;12.65;;;;;;;;;;12827198;19;20476;-69
2023/02/01 19:58:41;;;;;;;20.70;10.43;;;;;;;;;;12826069;19;20624;-69
2023/02/01 20:02:58;;;;;;;23.57;11.10;;;;;;;;;;12828291;19;20018;-68
2023/02/01 20:07:16;;;;;;;25.70;11.70;;;;;;;;;;12826378;19;20437;-68
2023/02/01 20:11:33;;;;;;;20.58;10.57;;;;;;;;;;12823802;19;20713;-68
2023/02/01 20:15:59;;;;;;;17.57;9.93;;;;;;;;;;12825922;19;20324;-69
2023/02/01 20:20:19;;;;;;;18.10;9.00;;;;;;;;;;12824855;19;20425;-68
2023/02/01 20:24:38;;;;;;;20.02;10.07;;;;;;;;;;12827611;19;20509;-70
2023/02/01 20:28:56;;;;;;;19.33;8.77;;;;;;;;;;12823887;19;20472;-71
2023/02/01 20:33:14;;;;;;;26.83;11.63;;;;;;;;;;12823081;19;20337;-68
2023/02/01 20:37:35;;;;;;;17.17;8.80;;;;;;;;;;12825659;19;20504;-70
2023/02/01 20:41:53;;;;;;;17.92;7.28;;;;;;;;;;12824138;19;20358;-67
2023/02/01 20:46:12;;;;;;;;;;;;;;;;;;12823122;19;20472;-70
2023/02/01 20:50:29;;;;;;;15.57;7.07;;;;;;;;;;12824379;19;20626;-68
2023/02/01 20:54:47;;;;;;;12.88;5.85;;;;;;;;;;12824794;19;20469;-68
2023/02/01 20:59:09;;;;;;;14.13;7.00;;;;;;;;;;12819749;19;20480;-68
2023/02/01 21:03:27;;;;;;;9.70;4.63;;;;;;;;;;12818998;19;20026;-68
2023/02/01 21:07:45;;;;;;;12.38;6.22;;;;;;;;;;12820669;19;20469;-68
2023/02/01 21:12:02;;;;;;;17.10;7.00;;;;;;;;;;12818594;19;20034;-69
2023/02/01 21:16:21;;;;;;;13.88;6.65;;;;;;;;;;12826148;19;20491;-70
2023/02/01 21:20:40;;;;;;;14.63;6.72;;;;;;;;;;12823032;19;20359;-68
2023/02/01 21:24:58;;;;;;;13.07;6.57;;;;;;;;;;12819754;19;20010;-68
2023/02/01 21:29:18;;;;;;;15.82;7.30;;;;;;;;;;12819241;19;20359;-70
2023/02/01 21:33:38;;;;;;;13.27;6.50;;;;;;;;;;12819637;19;20476;-70
2023/02/01 21:37:56;;;;;;;13.80;5.55;;;;;;;;;;12820927;19;20887;-70
2023/02/01 21:42:13;;;;;;;12.27;5.50;;;;;;;;;;12820202;19;20481;-69
2023/02/01 21:46:32;;;;;;;15.40;6.00;;;;;;;;;;12819755;19;20359;-69
2023/02/01 21:50:49;;;;;;;15.15;6.20;;;;;;;;;;12818002;19;20476;-68
2023/02/01 21:55:09;;;;;;;15.13;6.87;;;;;;;;;;12823741;19;20365;-71
2023/02/01 21:59:26;;;;;;;17.85;6.47;;;;;;;;;;12821388;19;20029;-69
2023/02/01 22:03:44;;;;;;;11.85;4.88;;;;;;;;;;12821284;19;20059;-69
2023/02/01 22:08:01;;;;;;;10.77;4.67;;;;;;;;;;12822706;19;20496;-71
2023/02/01 22:12:19;;;;;;;10.60;4.75;;;;;;;;;;12817555;19;20384;-70
2023/02/01 22:16:37;;;;;;;9.33;5.07;;;;;;;;;;12819094;19;20383;-69
2023/02/01 22:20:59;;;;;;;10.17;4.10;;;;;;;;;;12818030;19;20014;-70
2023/02/01 22:25:17;;;;;;;9.55;4.60;;;;;;;;;;12819473;19;20957;-69
2023/02/01 22:29:34;;;;;;;16.73;5.20;;;;;;;;;;12820261;19;20010;-69
2023/02/01 22:33:52;;;;;;;10.10;5.00;;;;;;;;;;12820137;19;20527;-69
2023/02/01 22:38:09;;;;;;;13.95;5.50;;;;;;;;;;12816145;19;20094;-69
2023/02/01 22:42:27;;;;;;;12.70;5.07;;;;;;;;;;12816055;19;20500;-70
2023/02/01 22:46:45;;;;;;;12.02;5.00;;;;;;;;;;12815732;19;20363;-69
2023/02/01 22:51:05;;;;;;;8.48;3.75;;;;;;;;;;12814148;19;20464;-69
2023/02/01 22:55:22;;;;;;;9.35;4.07;;;;;;;;;;12815267;19;20480;-70
2023/02/01 22:59:40;;;;;;;8.23;4.03;;;;;;;;;;12817615;19;20025;-68
2023/02/01 23:04:01;;;;;;;7.10;3.83;;;;;;;;;;12820086;19;20402;-68
2023/02/01 23:08:19;;;;;;;7.00;3.50;;;;;;;;;;12815826;19;20302;-69
2023/02/01 23:12:36;;;;;;;10.38;4.53;;;;;;;;;;12817877;19;20404;-68
2023/02/01 23:16:53;;;;;;;12.13;4.07;;;;;;;;;;12815055;19;20014;-70
2023/02/01 23:21:18;;;;;;;14.27;5.57;;;;;;;;;;12817922;19;20841;-70
2023/02/01 23:25:35;;;;;;;12.23;5.05;;;;;;;;;;12829171;19;20054;-70
2023/02/01 23:29:53;;;;;;;10.88;5.10;;;;;;;;;;12825786;19;20305;-70
2023/02/01 23:34:11;;;;;;;17.47;7.03;;;;;;;;;;12827641;19;20480;-68
2023/02/01 23:38:28;;;;;;;14.05;6.78;;;;;;;;;;12828314;19;20489;-69
2023/02/01 23:43:56;;;;;;;15.02;6.90;;;;;;;;;;12828271;19;20371;-68
2023/02/01 23:47:24;;;;;;;20.33;6.65;;;;;;;;;;12827451;19;20006;-70
2023/02/01 23:51:43;;;;;;;12.73;5.47;;;;;;;;;;12825997;19;20451;-70
2023/02/01 23:56:00;;;;;;;;;;;;;;;;;;12824564;19;20601;-70
